Time;durP1;ratioP1;P1;durP2;ratioP2;P2;SDS_P1;SDS_P2;PMS_P1;PMS_P2;Temp;Humidity;BMP_temperature;BMP_pressure;BME280_temperature;BME280_humidity;BME280_pressure;Samples;Min_cycle;Max_cycle;Signal;HPM_P1;HPM_P2
2022/11/24 00:00:52;;;;;;;4.70;3.03;;;4.10;99.90;;;;;;5005773;28;20441;-86
2022/11/24 00:03:18;;;;;;;6.17;3.50;;;4.20;99.90;;;;;;4997018;28;20525;-88
2022/11/24 00:05:44;;;;;;;9.17;3.93;;;4.10;99.90;;;;;;4998533;28;20470;-86
2022/11/24 00:08:10;;;;;;;6.97;2.13;;;4.10;99.90;;;;;;5017059;28;20184;-91
2022/11/24 00:10:36;;;;;;;6.23;3.37;;;4.20;99.90;;;;;;5016857;28;20273;-88
2022/11/24 00:13:01;;;;;;;7.50;3.20;;;4.10;99.90;;;;;;5016472;28;20443;-87
2022/11/24 00:15:27;;;;;;;5.10;2.87;;;4.10;99.90;;;;;;5016769;28;20168;-86
2022/11/24 00:17:52;;;;;;;3.47;2.10;;;4.10;99.90;;;;;;4999203;28;20217;-92
2022/11/24 00:20:18;;;;;;;4.60;2.50;;;4.10;99.90;;;;;;5015929;28;20210;-87
2022/11/24 00:22:43;;;;;;;3.43;2.10;;;4.10;99.90;;;;;;5015981;28;20174;-88
2022/11/24 00:25:09;;;;;;;4.97;3.37;;;4.10;99.90;;;;;;4998582;28;20198;-86
2022/11/24 00:27:34;;;;;;;7.30;4.07;;;4.10;99.90;;;;;;5015692;28;20173;-86
2022/11/24 00:29:59;;;;;;;5.90;3.93;;;4.10;99.90;;;;;;5015566;28;20177;-87
2022/11/24 00:32:29;;;;;;;5.07;3.30;;;4.10;99.90;;;;;;5015758;28;20251;-87
2022/11/24 00:34:54;;;;;;;7.33;3.40;;;4.10;99.90;;;;;;5014827;28;20234;-87
2022/11/24 00:37:20;;;;;;;2.50;2.13;;;4.10;99.90;;;;;;5014880;28;20407;-87
2022/11/24 00:39:45;;;;;;;5.60;3.03;;;4.10;99.90;;;;;;4997780;28;20175;-87
2022/11/24 00:42:10;;;;;;;5.07;3.33;;;4.10;99.90;;;;;;4997944;28;20519;-86
2022/11/24 00:44:36;;;;;;;6.93;2.43;;;4.20;99.90;;;;;;5015415;28;20194;-85
2022/11/24 00:47:01;;;;;;;6.47;3.17;;;4.10;99.90;;;;;;4997906;28;20305;-85
2022/11/24 00:49:27;;;;;;;10.53;3.43;;;4.10;99.90;;;;;;5015049;28;20180;-86
2022/11/24 00:51:52;;;;;;;7.70;3.57;;;4.10;99.90;;;;;;5015329;28;20177;-84
2022/11/24 00:54:18;;;;;;;7.90;3.20;;;4.10;99.90;;;;;;5015205;28;20176;-86
2022/11/24 00:56:46;;;;;;;6.17;3.00;;;4.00;99.90;;;;;;4997628;28;20577;-86
2022/11/24 00:59:11;;;;;;;6.50;2.97;;;4.00;99.90;;;;;;5015160;28;20175;-86
2022/11/24 01:01:37;;;;;;;5.10;3.00;;;4.00;99.90;;;;;;5000083;28;21002;-84
2022/11/24 01:04:04;;;;;;;5.87;2.57;;;4.00;99.90;;;;;;4977140;28;20174;-84
2022/11/24 01:06:31;;;;;;;5.80;2.43;;;4.10;99.90;;;;;;4977194;28;20846;-84
2022/11/24 01:08:57;;;;;;;3.90;2.47;;;4.00;99.90;;;;;;4995527;28;20423;-86
2022/11/24 01:14:19;;;;;;;6.20;3.47;;;4.10;99.90;;;;;;4995612;28;20463;-85
2022/11/24 01:16:47;;;;;;;7.80;2.87;;;4.10;99.90;;;;;;4995496;28;20561;-85
2022/11/24 01:19:13;;;;;;;5.00;2.83;;;4.00;99.90;;;;;;4977617;28;20421;-84
2022/11/24 01:21:39;;;;;;;4.83;3.20;;;4.10;99.90;;;;;;4995212;28;20434;-85
2022/11/24 01:24:04;;;;;;;4.77;2.60;;;4.10;99.90;;;;;;4995476;28;20176;-85
2022/11/24 01:26:30;;;;;;;4.73;2.90;;;4.10;99.90;;;;;;4977851;28;20211;-85
2022/11/24 01:28:57;;;;;;;5.10;2.73;;;4.10;99.90;;;;;;4977993;28;20174;-85
2022/11/24 01:31:26;;;;;;;4.23;2.77;;;4.10;99.90;;;;;;4995378;28;20314;-85
2022/11/24 01:33:52;;;;;;;7.00;1.90;;;4.10;99.90;;;;;;4995260;28;20436;-86
2022/11/24 01:36:17;;;;;;;7.80;3.37;;;4.10;99.90;;;;;;4977361;28;21002;-85
2022/11/24 01:38:43;;;;;;;10.60;2.90;;;4.10;99.90;;;;;;4995315;28;20423;-86
2022/11/24 01:41:20;;;;;;;4.67;2.80;;;4.10;99.90;;;;;;4995060;28;20201;-87
2022/11/24 01:43:46;;;;;;;3.90;2.93;;;4.10;99.90;;;;;;4995073;28;20168;-87
2022/11/24 01:46:42;;;;;;;6.40;3.37;;;4.20;99.90;;;;;;4995139;28;20558;-88
2022/11/24 01:49:07;;;;;;;6.73;3.10;;;4.20;99.90;;;;;;4993690;28;20411;-85
2022/11/24 01:51:38;;;;;;;4.43;2.07;;;4.20;99.90;;;;;;4977550;28;20509;-87
2022/11/24 01:54:16;;;;;;;4.37;2.77;;;4.20;99.90;;;;;;4977508;28;20171;-87
2022/11/24 01:56:46;;;;;;;11.67;2.90;;;4.20;99.90;;;;;;4994550;28;21204;-85
2022/11/24 01:59:13;;;;;;;6.00;2.80;;;4.20;99.90;;;;;;4977532;28;20418;-85
2022/11/24 02:01:39;;;;;;;5.20;2.30;;;4.20;99.90;;;;;;4994427;28;20422;-84
2022/11/24 02:04:11;;;;;;;4.00;2.90;;;4.40;99.90;;;;;;4976914;28;20414;-87
2022/11/24 02:06:40;;;;;;;5.90;2.57;;;4.50;99.90;;;;;;4994460;28;20283;-85
2022/11/24 02:09:40;;;;;;;4.80;2.60;;;4.40;99.90;;;;;;4994788;28;20444;-85
2022/11/24 02:12:06;;;;;;;4.63;2.43;;;4.40;99.90;;;;;;4989915;28;20424;-85
2022/11/24 02:14:34;;;;;;;4.60;2.07;;;4.40;99.90;;;;;;4977110;28;20414;-88
2022/11/24 02:16:59;;;;;;;10.10;3.70;;;4.40;99.90;;;;;;4977048;28;20184;-87
2022/11/24 02:19:40;;;;;;;5.63;2.20;;;4.50;99.90;;;;;;4994368;28;20427;-89
2022/11/24 02:22:29;;;;;;;3.43;1.40;;;4.50;99.90;;;;;;4977253;28;20175;-87
2022/11/24 02:25:19;;;;;;;6.03;2.80;;;4.50;99.90;;;;;;4976833;28;20423;-86
2022/11/24 02:27:45;;;;;;;5.37;3.43;;;4.50;99.90;;;;;;4976692;28;20514;-86
2022/11/24 02:30:10;;;;;;;5.00;2.70;;;4.50;99.90;;;;;;4976436;28;20443;-86
2022/11/24 02:32:41;;;;;;;4.70;2.43;;;4.50;99.90;;;;;;4994182;28;20192;-86
2022/11/24 02:35:08;;;;;;;6.73;2.70;;;4.60;99.90;;;;;;4993767;28;20267;-87
2022/11/24 02:37:33;;;;;;;5.07;1.70;;;4.60;99.90;;;;;;4976852;28;20830;-87
2022/11/24 02:39:59;;;;;;;7.47;1.50;;;4.60;99.90;;;;;;4994099;28;20495;-87
2022/11/24 02:42:27;;;;;;;3.13;1.60;;;4.60;99.90;;;;;;4994026;28;20188;-88
2022/11/24 02:44:57;;;;;;;3.83;2.10;;;4.60;99.90;;;;;;4976760;28;20168;-88
2022/11/24 02:47:22;;;;;;;4.40;3.17;;;4.50;99.90;;;;;;4994227;28;20419;-88
2022/11/24 02:49:48;;;;;;;8.17;2.57;;;4.50;99.90;;;;;;4975942;28;20781;-87
2022/11/24 02:52:15;;;;;;;4.33;2.33;;;4.40;99.90;;;;;;4993983;28;20172;-87
2022/11/24 02:54:41;;;;;;;2.87;2.60;;;4.40;99.90;;;;;;4994090;28;20172;-88
2022/11/24 02:57:07;;;;;;;4.67;2.43;;;4.30;99.90;;;;;;4976384;28;20433;-88
2022/11/24 02:59:32;;;;;;;5.03;2.70;;;4.30;99.90;;;;;;4993551;28;20175;-87
2022/11/24 03:02:00;;;;;;;4.63;2.30;;;4.20;99.90;;;;;;4993998;28;20668;-86
2022/11/24 03:04:26;;;;;;;5.40;3.07;;;4.20;99.90;;;;;;4975946;28;20271;-86
2022/11/24 03:06:51;;;;;;;4.67;2.13;;;4.20;99.90;;;;;;4993690;28;20984;-87
2022/11/24 03:09:17;;;;;;;3.37;2.10;;;4.10;99.90;;;;;;4993609;28;20254;-88
2022/11/24 03:11:42;;;;;;;3.13;2.37;;;4.10;99.90;;;;;;4976073;28;20243;-87
2022/11/24 03:14:08;;;;;;;5.10;1.90;;;4.10;99.90;;;;;;4997315;28;20181;-87
2022/11/24 03:16:37;;;;;;;6.80;2.10;;;4.10;99.90;;;;;;5013056;28;20191;-85
2022/11/24 03:19:03;;;;;;;10.20;3.27;;;4.10;99.90;;;;;;5012800;28;20255;-86
2022/11/24 03:21:28;;;;;;;4.90;2.93;;;4.00;99.90;;;;;;5013231;28;20423;-85
2022/11/24 03:23:54;;;;;;;5.90;2.50;;;4.00;99.90;;;;;;5013180;28;20415;-86
2022/11/24 03:26:22;;;;;;;3.00;2.07;;;4.00;99.90;;;;;;5013152;28;20210;-86
2022/11/24 03:28:47;;;;;;;9.07;2.90;;;4.00;99.90;;;;;;4995552;28;20518;-89
2022/11/24 03:31:13;;;;;;;4.67;2.57;;;3.90;99.90;;;;;;5012761;28;20497;-86
2022/11/24 03:33:39;;;;;;;3.80;2.60;;;3.90;99.90;;;;;;5012732;28;20223;-86
2022/11/24 03:36:05;;;;;;;5.07;2.83;;;3.90;99.90;;;;;;5012730;28;20496;-86
2022/11/24 03:38:31;;;;;;;6.23;2.87;;;3.90;99.90;;;;;;5012945;28;20180;-87
2022/11/24 03:40:57;;;;;;;5.90;3.07;;;3.80;99.90;;;;;;4995496;28;20477;-87
2022/11/24 03:43:22;;;;;;;4.83;2.90;;;3.90;99.90;;;;;;5013005;28;20979;-86
2022/11/24 03:45:51;;;;;;;4.00;2.30;;;3.90;99.90;;;;;;5012937;28;20218;-86
2022/11/24 03:48:20;;;;;;;4.20;2.53;;;4.00;99.90;;;;;;4995330;28;20172;-87
2022/11/24 03:50:53;;;;;;;5.20;2.67;;;4.00;99.90;;;;;;4995174;28;20838;-86
2022/11/24 03:53:18;;;;;;;4.10;3.07;;;4.00;99.90;;;;;;5012915;28;20813;-86
2022/11/24 03:55:44;;;;;;;3.00;2.50;;;4.00;99.90;;;;;;4995338;28;20509;-86
2022/11/24 03:58:09;;;;;;;3.50;1.77;;;4.10;99.90;;;;;;5012764;28;20174;-91
2022/11/24 04:00:35;;;;;;;5.03;2.90;;;4.10;99.90;;;;;;4995124;28;20175;-88
2022/11/24 04:03:00;;;;;;;3.00;1.57;;;4.10;99.90;;;;;;5012696;28;20274;-87
2022/11/24 04:05:29;;;;;;;3.60;2.40;;;4.10;99.90;;;;;;5012248;28;20210;-87
2022/11/24 04:07:56;;;;;;;4.87;3.10;;;4.20;99.90;;;;;;5012725;28;20520;-87
2022/11/24 04:10:22;;;;;;;4.33;1.33;;;4.20;99.90;;;;;;4995212;28;20814;-87
2022/11/24 04:12:47;;;;;;;4.53;2.40;;;4.20;99.90;;;;;;4997342;28;20959;-87
2022/11/24 04:15:19;;;;;;;3.17;1.93;;;4.20;99.90;;;;;;5016153;28;20422;-87
2022/11/24 04:17:46;;;;;;;9.67;2.83;;;4.20;99.90;;;;;;4998645;28;20172;-86
2022/11/24 04:20:12;;;;;;;6.53;1.70;;;4.20;99.90;;;;;;5015922;28;20420;-87
2022/11/24 04:22:38;;;;;;;7.03;3.10;;;4.30;99.90;;;;;;5016370;28;20973;-88
2022/11/24 04:25:08;;;;;;;3.70;1.90;;;4.30;99.90;;;;;;5015981;28;20429;-86
2022/11/24 04:27:35;;;;;;;6.53;2.80;;;4.30;99.90;;;;;;5015992;28;20423;-84
2022/11/24 04:30:01;;;;;;;5.90;2.83;;;4.30;99.90;;;;;;4998466;28;20438;-85
2022/11/24 04:32:27;;;;;;;5.40;2.53;;;4.40;99.90;;;;;;5016059;28;20985;-84
2022/11/24 04:34:52;;;;;;;5.00;2.40;;;4.30;99.90;;;;;;4997774;28;20815;-85
2022/11/24 04:37:18;;;;;;;4.63;2.30;;;4.40;99.90;;;;;;4998287;28;20426;-84
2022/11/24 04:39:45;;;;;;;4.90;3.10;;;4.40;99.90;;;;;;5015770;28;20172;-84
2022/11/24 04:42:11;;;;;;;7.30;2.63;;;4.50;99.90;;;;;;4998403;28;20169;-91
2022/11/24 04:44:36;;;;;;;3.00;1.87;;;4.50;99.90;;;;;;5016084;28;20415;-91
2022/11/24 04:47:02;;;;;;;4.17;1.50;;;4.50;99.90;;;;;;4999582;28;20479;-94
2022/11/24 04:49:27;;;;;;;4.30;2.50;;;4.50;99.90;;;;;;5015720;28;20207;-91
2022/11/24 04:51:53;;;;;;;3.83;2.00;;;4.50;99.90;;;;;;4999916;28;20234;-87
2022/11/24 04:54:18;;;;;;;6.83;3.23;;;4.60;99.90;;;;;;4998291;28;20196;-90
2022/11/24 04:56:44;;;;;;;7.20;3.83;;;4.60;99.90;;;;;;4998396;28;20305;-91
2022/11/24 04:59:15;;;;;;;4.90;2.00;;;4.60;99.90;;;;;;4998449;28;20174;-86
2022/11/24 05:01:42;;;;;;;4.63;2.90;;;4.60;99.90;;;;;;5015966;28;20183;-89
2022/11/24 05:04:13;;;;;;;6.30;2.67;;;4.60;99.90;;;;;;4997865;28;20493;-85
2022/11/24 05:06:39;;;;;;;3.23;1.40;;;4.70;99.90;;;;;;5015508;28;20882;-91
2022/11/24 05:09:06;;;;;;;4.80;2.70;;;4.70;99.90;;;;;;4998257;28;20421;-88
2022/11/24 05:11:34;;;;;;;3.10;1.63;;;4.70;99.90;;;;;;4998322;28;20275;-89
2022/11/24 05:14:00;;;;;;;4.27;2.00;;;4.80;99.90;;;;;;4997936;28;20477;-86
2022/11/24 05:16:26;;;;;;;7.40;2.50;;;4.70;99.90;;;;;;5015731;28;20837;-88
2022/11/24 05:18:51;;;;;;;5.40;3.13;;;4.70;99.90;;;;;;5010475;28;20511;-87
2022/11/24 05:21:17;;;;;;;4.07;1.93;;;4.70;99.90;;;;;;4995711;28;20164;-88
2022/11/24 05:23:43;;;;;;;6.10;2.10;;;4.80;99.90;;;;;;4978216;28;20178;-92
2022/11/24 05:26:09;;;;;;;6.40;2.80;;;4.70;99.90;;;;;;4995958;28;20304;-86
2022/11/24 05:28:34;;;;;;;5.60;3.27;;;4.80;99.90;;;;;;4995479;28;20494;-89
2022/11/24 05:31:02;;;;;;;6.23;1.63;;;4.80;99.90;;;;;;4995683;28;20221;-86
2022/11/24 05:33:28;;;;;;;6.63;2.30;;;4.80;99.90;;;;;;4979611;28;20203;-85
2022/11/24 05:35:58;;;;;;;4.80;2.33;;;4.80;99.90;;;;;;4995127;28;20461;-90
2022/11/24 05:38:25;;;;;;;4.50;2.83;;;4.80;99.90;;;;;;4978109;28;20968;-85
2022/11/24 05:40:50;;;;;;;6.20;2.87;;;4.90;99.90;;;;;;4995344;28;20912;-89
2022/11/24 05:43:16;;;;;;;4.43;2.77;;;4.80;99.90;;;;;;4995168;28;20455;-85
2022/11/24 05:45:49;;;;;;;6.83;2.57;;;4.80;99.90;;;;;;4995047;28;20690;-85
2022/11/24 05:48:15;;;;;;;5.03;1.80;;;4.80;99.90;;;;;;4994868;28;20657;-88
2022/11/24 05:50:41;;;;;;;4.00;1.80;;;4.90;99.90;;;;;;4977462;28;20782;-88
2022/11/24 05:53:09;;;;;;;4.63;2.40;;;4.90;99.90;;;;;;4994868;28;20425;-87
2022/11/24 05:55:35;;;;;;;4.40;1.50;;;4.90;99.90;;;;;;4994757;28;20432;-86
2022/11/24 05:58:06;;;;;;;5.63;1.90;;;5.00;99.90;;;;;;4994422;28;20412;-87
2022/11/24 06:00:33;;;;;;;3.53;2.37;;;5.00;99.90;;;;;;4995034;28;20413;-86
2022/11/24 06:02:59;;;;;;;3.13;2.13;;;5.00;99.90;;;;;;4994758;28;20486;-85
2022/11/24 06:05:27;;;;;;;8.17;1.93;;;5.00;99.90;;;;;;4994121;28;20465;-89
2022/11/24 06:07:53;;;;;;;9.00;3.10;;;5.00;99.90;;;;;;4995239;28;20488;-85
2022/11/24 06:10:20;;;;;;;5.23;2.50;;;5.00;99.90;;;;;;4994354;28;20940;-85
2022/11/24 06:12:46;;;;;;;4.27;3.00;;;5.10;99.90;;;;;;4994702;28;20509;-86
2022/11/24 06:15:12;;;;;;;3.80;1.73;;;5.00;99.90;;;;;;4994559;28;20427;-87
2022/11/24 06:17:38;;;;;;;5.83;2.37;;;5.10;99.90;;;;;;4995201;28;20916;-87
2022/11/24 06:20:06;;;;;;;7.93;3.07;;;5.10;99.90;;;;;;4977906;28;20204;-85
2022/11/24 06:22:32;;;;;;;8.03;2.47;;;5.10;99.90;;;;;;4994961;28;20408;-89
2022/11/24 06:24:58;;;;;;;3.70;2.13;;;5.00;99.90;;;;;;4994664;28;20949;-84
2022/11/24 06:27:23;;;;;;;6.03;2.40;;;5.10;99.90;;;;;;4994319;28;20426;-87
2022/11/24 06:29:49;;;;;;;6.27;2.10;;;5.00;99.90;;;;;;4994120;28;20172;-86
2022/11/24 06:32:15;;;;;;;3.93;2.27;;;5.00;99.90;;;;;;4976882;28;20185;-90
2022/11/24 06:34:43;;;;;;;5.60;1.97;;;5.10;99.90;;;;;;4975699;28;20237;-92
2022/11/24 06:37:09;;;;;;;9.10;3.07;;;5.10;99.90;;;;;;4975837;28;20759;-85
2022/11/24 06:39:34;;;;;;;4.20;1.97;;;5.10;99.90;;;;;;4976602;28;20437;-87
2022/11/24 06:42:00;;;;;;;4.03;2.43;;;5.10;99.90;;;;;;4976394;28;20267;-85
2022/11/24 06:44:29;;;;;;;5.30;2.00;;;5.00;99.90;;;;;;4993201;28;20622;-89
2022/11/24 06:46:54;;;;;;;6.27;2.87;;;5.10;99.90;;;;;;4994125;28;20297;-91
2022/11/24 06:49:19;;;;;;;4.10;1.67;;;5.10;99.90;;;;;;4993964;28;20810;-87
2022/11/24 06:51:45;;;;;;;8.27;2.80;;;5.10;99.90;;;;;;4993765;28;20184;-86
2022/11/24 06:54:16;;;;;;;5.40;1.87;;;5.10;99.90;;;;;;4993949;28;20204;-87
2022/11/24 06:56:41;;;;;;;8.70;3.03;;;5.10;99.90;;;;;;4993980;28;20535;-86
2022/11/24 06:59:13;;;;;;;7.03;2.67;;;5.10;99.90;;;;;;4994355;28;20502;-88
2022/11/24 07:01:38;;;;;;;6.93;2.13;;;5.00;99.90;;;;;;5014448;28;20189;-88
2022/11/24 07:04:04;;;;;;;5.50;2.10;;;5.00;99.90;;;;;;5013199;28;20416;-92
2022/11/24 07:06:33;;;;;;;6.10;2.57;;;5.00;99.90;;;;;;4995618;28;20218;-87
2022/11/24 07:08:58;;;;;;;7.33;3.17;;;5.00;99.90;;;;;;5013317;28;20239;-86
2022/11/24 07:11:24;;;;;;;5.37;1.80;;;5.00;99.90;;;;;;4995614;28;20414;-86
2022/11/24 07:13:50;;;;;;;5.70;2.70;;;5.00;99.90;;;;;;4995980;28;20525;-87
2022/11/24 07:16:18;;;;;;;6.97;2.60;;;5.00;99.90;;;;;;4996260;28;20187;-85
2022/11/24 07:18:45;;;;;;;10.77;3.10;;;5.10;99.90;;;;;;4995547;28;20171;-86
2022/11/24 07:21:11;;;;;;;13.13;4.00;;;5.10;99.90;;;;;;4995809;28;20504;-87
2022/11/24 07:23:37;;;;;;;4.77;2.20;;;5.10;99.90;;;;;;4995816;28;20514;-87
2022/11/24 07:26:06;;;;;;;7.40;3.30;;;5.00;99.90;;;;;;4995777;28;20219;-86
2022/11/24 07:28:33;;;;;;;5.33;2.63;;;5.00;99.90;;;;;;4996238;28;20426;-88
2022/11/24 07:31:07;;;;;;;3.83;2.77;;;5.00;99.90;;;;;;4995939;28;20419;-87
2022/11/24 07:33:33;;;;;;;4.47;1.83;;;5.00;99.90;;;;;;5013279;28;20428;-86
2022/11/24 07:35:59;;;;;;;4.77;3.30;;;5.00;99.90;;;;;;4995994;28;20536;-86
2022/11/24 07:38:24;;;;;;;6.63;4.50;;;5.00;99.90;;;;;;4996081;28;20175;-87
2022/11/24 07:40:50;;;;;;;4.00;2.37;;;5.00;99.90;;;;;;5013395;28;20472;-92
2022/11/24 07:43:15;;;;;;;7.93;3.00;;;5.00;99.90;;;;;;5013890;28;20179;-93
2022/11/24 07:45:49;;;;;;;4.20;2.70;;;5.00;99.90;;;;;;5013803;28;20540;-93
2022/11/24 07:48:15;;;;;;;4.60;2.40;;;5.00;99.90;;;;;;5016780;28;20262;-86
2022/11/24 07:50:41;;;;;;;5.30;3.20;;;5.10;99.90;;;;;;5017156;28;20453;-87
2022/11/24 07:53:06;;;;;;;7.80;3.33;;;5.10;99.90;;;;;;5017593;28;20671;-87
2022/11/24 07:55:32;;;;;;;5.77;2.20;;;5.20;99.90;;;;;;5019351;28;20180;-90
2022/11/24 07:58:00;;;;;;;10.03;3.70;;;5.20;99.90;;;;;;5022725;28;20256;-86
2022/11/24 08:00:27;;;;;;;6.57;3.20;;;5.40;99.90;;;;;;5005422;28;20191;-88
2022/11/24 08:02:52;;;;;;;4.07;3.07;;;5.50;99.90;;;;;;5025905;28;20445;-89
2022/11/24 08:05:18;;;;;;;4.97;3.10;;;5.60;99.90;;;;;;5024705;28;20430;-94
2022/11/24 08:07:43;;;;;;;6.00;3.30;;;5.70;99.90;;;;;;5021879;28;20183;-93
2022/11/24 08:10:09;;;;;;;8.67;3.07;;;5.80;99.90;;;;;;5017034;28;20163;-86
2022/11/24 08:12:34;;;;;;;4.50;3.10;;;5.70;99.90;;;;;;4999803;28;20214;-93
2022/11/24 08:15:00;;;;;;;5.70;3.53;;;5.80;99.90;;;;;;5017176;28;20207;-88
2022/11/24 08:17:27;;;;;;;4.73;3.10;;;5.70;99.90;;;;;;5016883;28;20179;-85
2022/11/24 08:19:53;;;;;;;6.50;2.90;;;5.70;99.90;;;;;;5016177;28;20199;-81
2022/11/24 08:22:18;;;;;;;5.47;3.53;;;5.70;99.90;;;;;;5016679;28;20411;-91
2022/11/24 08:24:47;;;;;;;6.70;4.20;;;5.70;99.90;;;;;;5016416;28;20176;-88
2022/11/24 08:27:14;;;;;;;9.50;3.97;;;5.70;99.90;;;;;;4999281;28;20205;-92
2022/11/24 08:29:39;;;;;;;5.23;3.63;;;5.70;99.90;;;;;;5016568;28;20406;-86
2022/11/24 08:32:08;;;;;;;6.80;3.80;;;5.80;99.90;;;;;;5016530;28;20568;-81
2022/11/24 08:34:33;;;;;;;6.33;3.47;;;5.80;99.90;;;;;;5015616;28;20236;-82
2022/11/24 08:36:59;;;;;;;9.03;4.53;;;5.90;99.90;;;;;;5015957;28;20504;-88
2022/11/24 08:39:24;;;;;;;8.93;3.57;;;5.90;99.90;;;;;;5016279;28;20642;-91
2022/11/24 08:41:50;;;;;;;11.00;2.90;;;6.00;99.90;;;;;;5015957;28;20187;-93
2022/11/24 08:44:17;;;;;;;6.07;3.63;;;5.90;99.90;;;;;;5016125;28;20199;-81
2022/11/24 08:46:43;;;;;;;7.93;4.10;;;6.00;99.90;;;;;;5015966;28;20199;-85
2022/11/24 08:49:09;;;;;;;7.20;3.67;;;6.00;99.90;;;;;;5015421;28;20413;-81
2022/11/24 08:51:35;;;;;;;9.13;2.73;;;6.10;99.90;;;;;;5015900;28;20473;-88
2022/11/24 08:54:01;;;;;;;4.80;2.90;;;6.10;99.90;;;;;;5016121;28;20416;-81
2022/11/24 08:56:28;;;;;;;5.93;2.83;;;6.10;99.90;;;;;;5015973;28;20180;-92
2022/11/24 08:58:56;;;;;;;6.50;3.23;;;6.10;99.90;;;;;;5015243;28;20180;-92
2022/11/24 09:01:23;;;;;;;4.37;2.97;;;6.20;99.90;;;;;;5015981;28;20419;-84
2022/11/24 09:03:49;;;;;;;5.43;3.33;;;6.20;99.90;;;;;;5015532;28;20411;-91
2022/11/24 09:06:16;;;;;;;4.47;2.73;;;6.30;99.90;;;;;;5015738;28;20559;-82
2022/11/24 09:08:41;;;;;;;5.40;2.27;;;6.30;99.90;;;;;;5015823;28;20534;-93
2022/11/24 09:11:10;;;;;;;6.83;2.57;;;6.40;99.90;;;;;;5015625;28;20411;-81
2022/11/24 09:13:36;;;;;;;4.80;2.93;;;6.50;99.90;;;;;;4998208;28;20180;-84
2022/11/24 09:16:10;;;;;;;8.20;3.87;;;6.60;99.90;;;;;;4997960;28;20905;-93
2022/11/24 09:18:39;;;;;;;5.90;3.20;;;7.00;99.90;;;;;;5015262;28;20400;-88
2022/11/24 09:21:17;;;;;;;4.93;3.33;;;7.20;99.90;;;;;;5015371;28;20916;-82
2022/11/24 09:23:44;;;;;;;5.67;3.03;;;7.30;99.90;;;;;;5015675;28;20523;-82
2022/11/24 09:26:13;;;;;;;6.47;3.80;;;7.30;99.90;;;;;;5015397;28;20475;-81
2022/11/24 09:28:41;;;;;;;10.07;4.33;;;7.30;99.90;;;;;;5015270;28;20478;-91
2022/11/24 09:31:10;;;;;;;7.90;3.83;;;7.10;99.90;;;;;;5015288;28;20429;-81
2022/11/24 09:33:36;;;;;;;5.70;3.07;;;7.10;99.90;;;;;;4997132;28;20482;-87
2022/11/24 09:36:02;;;;;;;8.03;4.30;;;7.20;99.90;;;;;;5014784;28;20472;-92
2022/11/24 09:38:28;;;;;;;11.73;5.37;;;7.30;99.90;;;;;;4997707;28;20435;-83
2022/11/24 09:40:54;;;;;;;6.17;3.57;;;7.20;99.90;;;;;;4997589;28;20522;-82
2022/11/24 09:43:42;;;;;;;5.47;2.87;;;7.20;99.90;;;;;;5015043;28;20590;-82
2022/11/24 09:46:19;;;;;;;9.57;2.70;;;7.20;99.90;;;;;;5014874;28;20499;-82
2022/11/24 09:48:51;;;;;;;5.80;3.00;;;7.20;99.90;;;;;;5014754;28;20401;-89
2022/11/24 09:51:19;;;;;;;8.60;3.37;;;7.20;99.90;;;;;;5014679;28;20484;-92
2022/11/24 09:54:12;;;;;;;8.73;3.67;;;7.20;99.90;;;;;;4997312;28;20530;-92
2022/11/24 09:56:40;;;;;;;4.63;2.20;;;7.20;99.90;;;;;;4988977;28;20443;-84
2022/11/24 09:59:20;;;;;;;8.93;3.97;;;7.20;99.90;;;;;;5014813;28;20450;-81
2022/11/24 10:01:46;;;;;;;7.40;3.10;;;7.20;99.90;;;;;;5014444;28;20416;-81
2022/11/24 10:04:20;;;;;;;8.40;3.27;;;7.40;99.90;;;;;;5014012;28;20415;-89
2022/11/24 10:07:06;;;;;;;7.20;2.60;;;7.50;99.90;;;;;;5014154;28;20845;-81
2022/11/24 10:09:55;;;;;;;5.53;2.03;;;7.70;99.90;;;;;;5013486;28;20417;-92
2022/11/24 10:12:42;;;;;;;4.83;2.90;;;7.90;99.90;;;;;;5014281;28;20771;-82
2022/11/24 10:15:26;;;;;;;6.63;2.37;;;8.00;99.90;;;;;;5014157;28;20421;-88
2022/11/24 10:18:01;;;;;;;7.03;3.10;;;8.00;99.90;;;;;;4996654;28;20524;-87
2022/11/24 10:20:40;;;;;;;3.87;2.03;;;8.00;99.90;;;;;;5014707;28;20417;-90
2022/11/24 10:23:32;;;;;;;5.77;2.10;;;7.90;99.90;;;;;;5014361;28;20467;-92
2022/11/24 10:26:00;;;;;;;6.30;2.07;;;8.10;99.90;;;;;;5014110;28;20452;-81
2022/11/24 10:28:38;;;;;;;11.67;3.30;;;8.10;99.90;;;;;;5014019;28;20421;-87
2022/11/24 10:31:22;;;;;;;6.80;1.90;;;8.10;99.90;;;;;;5013446;28;20885;-82
2022/11/24 10:33:48;;;;;;;4.93;1.90;;;8.10;99.90;;;;;;4995994;28;20433;-89
2022/11/24 10:36:23;;;;;;;6.03;2.03;;;8.00;99.90;;;;;;5013910;28;20871;-92
2022/11/24 10:39:34;;;;;;;7.13;1.77;;;8.00;99.90;;;;;;5014181;28;20497;-82
2022/11/24 10:42:05;;;;;;;5.43;2.70;;;8.10;99.90;;;;;;5013920;28;20417;-92
2022/11/24 10:44:31;;;;;;;9.30;2.77;;;8.20;99.90;;;;;;4996185;28;20927;-91
2022/11/24 10:46:56;;;;;;;7.20;2.73;;;8.20;99.90;;;;;;4995984;28;20470;-82
2022/11/24 10:49:27;;;;;;;10.50;2.00;;;8.30;99.90;;;;;;5013140;28;20199;-88
2022/11/24 10:52:10;;;;;;;7.50;2.73;;;8.50;99.90;;;;;;5013710;28;20773;-85
2022/11/24 10:54:53;;;;;;;12.83;3.50;;;8.50;99.90;;;;;;4996152;28;20833;-82
2022/11/24 10:57:33;;;;;;;9.93;4.70;;;8.70;99.90;;;;;;5014235;28;20444;-85
2022/11/24 11:00:01;;;;;;;13.83;4.40;;;8.70;99.90;;;;;;4997754;28;20424;-82
2022/11/24 11:02:29;;;;;;;10.13;3.93;;;8.60;99.90;;;;;;4982330;28;20447;-89
2022/11/24 11:04:55;;;;;;;7.20;3.67;;;8.60;99.90;;;;;;4982315;28;20466;-84
2022/11/24 11:07:24;;;;;;;9.50;4.07;;;8.50;99.90;;;;;;4992187;28;20853;-89
2022/11/24 11:09:49;;;;;;;13.30;4.70;;;8.50;99.90;;;;;;4971137;28;20271;-90
2022/11/24 11:12:21;;;;;;;12.47;4.40;;;8.50;99.90;;;;;;4984486;28;21011;-91
2022/11/24 11:14:47;;;;;;;8.83;3.93;;;8.50;99.90;;;;;;4960619;28;20589;-91
2022/11/24 11:17:33;;;;;;;10.73;5.17;;;8.50;99.90;;;;;;4973406;28;20792;-91
2022/11/24 11:20:23;;;;;;;13.07;4.73;;;8.50;99.90;;;;;;4964550;28;20425;-82
2022/11/24 11:22:49;;;;;;;9.20;3.80;;;8.60;99.90;;;;;;4984228;28;20416;-89
2022/11/24 11:25:24;;;;;;;6.57;3.03;;;8.60;99.90;;;;;;4987746;28;20466;-83
2022/11/24 11:27:50;;;;;;;7.20;2.87;;;8.70;99.90;;;;;;4961496;28;20270;-83
2022/11/24 11:30:19;;;;;;;7.10;2.23;;;8.80;99.90;;;;;;4980919;28;20471;-85
2022/11/24 11:32:57;;;;;;;11.13;2.97;;;8.80;99.90;;;;;;4983986;28;20576;-84
2022/11/24 11:35:25;;;;;;;12.10;1.40;;;8.90;99.90;;;;;;4978463;28;20456;-85
2022/11/24 11:38:02;;;;;;;4.73;0.77;;;9.00;99.90;;;;;;4978478;28;20933;-89
2022/11/24 11:40:30;;;;;;;9.03;1.50;;;9.00;99.90;;;;;;4994994;28;20431;-89
2022/11/24 11:43:04;;;;;;;4.70;1.73;;;9.10;99.90;;;;;;4997559;28;20783;-86
2022/11/24 11:45:40;;;;;;;9.00;1.80;;;9.10;99.90;;;;;;4979977;28;20532;-89
2022/11/24 11:48:29;;;;;;;10.43;1.93;;;9.10;99.90;;;;;;4997194;28;20437;-85
2022/11/24 11:51:16;;;;;;;12.30;1.97;;;9.10;99.90;;;;;;4997272;28;20412;-87
2022/11/24 11:54:03;;;;;;;8.00;1.10;;;9.20;99.90;;;;;;4997486;28;20404;-86
2022/11/24 11:56:33;;;;;;;8.20;1.70;;;9.20;99.90;;;;;;4980314;28;20423;-89
2022/11/24 11:59:32;;;;;;;4.50;1.07;;;9.30;99.90;;;;;;4997432;28;20750;-89
2022/11/24 12:02:15;;;;;;;5.27;1.70;;;9.30;99.90;;;;;;4997218;28;20423;-89
2022/11/24 12:04:51;;;;;;;6.20;1.33;;;9.30;99.90;;;;;;4997514;28;20443;-89
2022/11/24 12:07:41;;;;;;;8.53;1.60;;;9.20;99.90;;;;;;4997026;28;20471;-91
2022/11/24 12:10:35;;;;;;;9.97;1.87;;;9.10;99.90;;;;;;4997142;28;20428;-87
2022/11/24 12:13:32;;;;;;;7.07;2.73;;;9.20;99.90;;;;;;4996857;28;20427;-89
2022/11/24 12:16:29;;;;;;;7.60;1.87;;;9.20;99.90;;;;;;4997111;28;20412;-85
2022/11/24 12:19:20;;;;;;;4.80;1.40;;;9.30;99.90;;;;;;4996594;28;20463;-87
2022/11/24 12:22:15;;;;;;;7.53;2.40;;;9.30;99.90;;;;;;4996654;28;20544;-87
2022/11/24 12:25:07;;;;;;;6.23;1.63;;;9.40;99.90;;;;;;4971767;28;20826;-88
2022/11/24 12:27:53;;;;;;;11.30;2.40;;;9.50;99.90;;;;;;4979811;28;20480;-83
2022/11/24 12:30:21;;;;;;;10.10;1.73;;;9.60;99.90;;;;;;4990431;28;20562;-88
2022/11/24 12:33:12;;;;;;;9.03;2.30;;;9.60;99.90;;;;;;5015536;28;20419;-88
2022/11/24 12:35:47;;;;;;;13.47;2.77;;;9.80;99.90;;;;;;5016112;28;20995;-87
2022/11/24 12:38:44;;;;;;;8.00;1.33;;;9.70;99.90;;;;;;4998970;28;20466;-88
2022/11/24 12:41:29;;;;;;;9.97;2.00;;;9.70;99.90;;;;;;5016290;28;20408;-90
2022/11/24 12:43:59;;;;;;;9.33;1.70;;;9.60;99.90;;;;;;5016261;28;20550;-89
2022/11/24 12:46:55;;;;;;;9.03;1.77;;;9.50;99.90;;;;;;4998795;28;20469;-85
2022/11/24 12:49:27;;;;;;;5.63;1.83;;;9.50;99.90;;;;;;4998412;28;20430;-84
2022/11/24 12:52:00;;;;;;;7.33;1.03;;;9.50;99.90;;;;;;5016169;28;20442;-86
2022/11/24 12:54:37;;;;;;;8.53;1.60;;;9.50;99.90;;;;;;5015732;28;20433;-85
2022/11/24 12:57:28;;;;;;;5.50;1.50;;;9.40;99.90;;;;;;5016572;28;20454;-84
2022/11/24 13:00:08;;;;;;;12.10;1.90;;;9.40;99.90;;;;;;4999257;28;20558;-88
2022/11/24 13:03:15;;;;;;;9.00;1.40;;;9.30;99.90;;;;;;4999904;28;20486;-90
2022/11/24 13:05:59;;;;;;;9.40;1.87;;;9.20;99.90;;;;;;4980270;28;20898;-84
2022/11/24 13:08:26;;;;;;;7.13;2.13;;;9.20;99.90;;;;;;5015727;28;20418;-85
2022/11/24 13:10:52;;;;;;;8.30;2.27;;;9.20;99.90;;;;;;5015414;28;20471;-88
2022/11/24 13:13:20;;;;;;;11.50;1.80;;;9.20;99.90;;;;;;5015707;28;20431;-88